WetterOnline ( https://www.wetteronline.de )

Wetter aktuell Potsdam

Aktuelles Wetter: Potsdam (100m)

6-stündlich | Neueste Meldungen
Ortszeit Temperatur Wetter
Mo, 21.10. 20:00 15.2° C wolkig
Mo, 21.10. 14:00 16.5° C wolkig
Mo, 21.10. 8:00 11.0° C leicht bewölkt
Mo, 21.10. 2:00 12.9° C wolkig
So, 20.10. 20:00 15.5° C wolkig
So, 20.10. 14:00 18.5° C leicht bewölkt
So, 20.10. 8:00 12.1° C bewölkt
So, 20.10. 2:00 12.0° C wolkig
Ortszeit Temperatur Wetter
Di, 22.10. 1:30 13.2° C wolkenlos
Di, 22.10. 1:20 13.2° C wolkenlos
Di, 22.10. 1:10 13.2° C wolkenlos
Di, 22.10. 1:00 13.4° C leicht bewölkt
Di, 22.10. 0:50 13.4° C leicht bewölkt
Di, 22.10. 0:40 13.5° C wolkig
Di, 22.10. 0:30 13.7° C leicht bewölkt
Di, 22.10. 0:00 14.1° C leicht bewölkt
Mo, 21.10. 23:30 14.6° C leicht bewölkt
Mo, 21.10. 23:00 14.7° C leicht bewölkt
Mo, 21.10. 22:30 15.0° C bedeckt
Ortszeit Relative Feuchte Sichtweite
Mo, 21.10. 20:00 93% 25 km
Mo, 21.10. 14:00 77% 22 km
Mo, 21.10. 8:00 99% 10 km
Mo, 21.10. 2:00 94% 24 km
So, 20.10. 20:00 86% 45 km
So, 20.10. 14:00 69% 45 km
So, 20.10. 8:00 85% 35 km
So, 20.10. 2:00 85% 30 km
Ortszeit Relative Feuchte Sichtweite
Di, 22.10. 1:30 96% 40 km
Di, 22.10. 1:20 96% -
Di, 22.10. 1:10 97% -
Di, 22.10. 1:00 97% 40 km
Di, 22.10. 0:50 97% -
Di, 22.10. 0:40 96% -
Di, 22.10. 0:30 96% 40 km
Di, 22.10. 0:00 94% 40 km
Mo, 21.10. 23:30 93% 40 km
Mo, 21.10. 23:00 93% 40 km
Mo, 21.10. 22:30 92% 29 km
Ortszeit Niederschlagsmenge Niederschlagsart
Mo, 21.10. 20:00 0.0 l/m2 in 12 Std. -
Mo, 21.10. 14:00 0.0 l/m2 in 6 Std. -
Mo, 21.10. 8:00 0.0 l/m2 in 12 Std. -
Mo, 21.10. 2:00 0.0 l/m2 in 6 Std. -
So, 20.10. 20:00 0.0 l/m2 in 12 Std. -
So, 20.10. 14:00 0.0 l/m2 in 6 Std. -
So, 20.10. 8:00 0.1 l/m2 in 12 Std. Regen
So, 20.10. 2:00 0.0 l/m2 in 6 Std. -
Ortszeit Niederschlagsmenge Niederschlagsart
Di, 22.10. 1:30 0.0 l/m2 in 1 Std. -
Di, 22.10. 1:20 keine Meldung -
Di, 22.10. 1:10 keine Meldung -
Di, 22.10. 1:00 0.0 l/m2 in 1 Std. -
Di, 22.10. 0:50 keine Meldung -
Di, 22.10. 0:40 keine Meldung -
Di, 22.10. 0:30 0.0 l/m2 in 1 Std. -
Di, 22.10. 0:00 0.0 l/m2 in 1 Std. -
Mo, 21.10. 23:30 0.0 l/m2 in 1 Std. -
Mo, 21.10. 23:00 0.0 l/m2 in 1 Std. -
Mo, 21.10. 22:30 0.0 l/m2 in 1 Std. -
Ortszeit Stärke Spitze Richtung
km/h Bft. km/h Grad Sektor
Mo, 21.10. 20:00 13 3 17 230° SW
Mo, 21.10. 14:00 4 1 18 270° W
Mo, 21.10. 8:00 7 2 22 150° SO
Mo, 21.10. 2:00 14 3 22 110° O
So, 20.10. 20:00 13 3 17 90° O
So, 20.10. 14:00 7 2 22 150° SO
So, 20.10. 8:00 11 2 32 180° S
So, 20.10. 2:00 14 3 32 180° S
Ortszeit Stärke Spitze Richtung
km/h Bft. km/h Grad Sektor
Di, 22.10. 1:30 17 3 19 250° W
Di, 22.10. 1:20 17 3 - 250° W
Di, 22.10. 1:10 14 3 - 250° W
Di, 22.10. 1:00 15 3 19 230° SW
Di, 22.10. 0:50 15 3 - 230° SW
Di, 22.10. 0:40 15 3 - 230° SW
Di, 22.10. 0:30 13 3 17 230° SW
Di, 22.10. 0:00 11 2 18 230° SW
Mo, 21.10. 23:30 14 3 18 230° SW
Mo, 21.10. 23:00 13 3 17 250° W
Mo, 21.10. 22:30 11 2 14 230° SW
Ortszeit Untergrenze Bedeckung Gattung
total tief tief mittel hoch
Mo, 21.10. 20:00 2700 m 7/8 7/8 - As Ci
Mo, 21.10. 14:00 4500 m 7/8 3/8 - As Cs
Mo, 21.10. 8:00 4800 m 4/8 1/8 - Ac Ci
Mo, 21.10. 2:00 3600 m 8/8 8/8 - As -
So, 20.10. 20:00 3900 m 7/8 7/8 - Ac -
So, 20.10. 14:00 1500 m 5/8 1/8 Sc Ac Ci
So, 20.10. 8:00 1500 m 7/8 7/8 Cu - -
So, 20.10. 2:00 3600 m 7/8 4/8 - As Cs
Ortszeit Bedeckungsgrad in Achtel und Wolkenuntergrenze
Di, 22.10. 1:30 keine Wolken
Di, 22.10. 1:20 keine Wolken
Di, 22.10. 1:10 keine Wolken
Di, 22.10. 1:00 2(3300m) 2(10500m)
Di, 22.10. 0:50 1(7200m) 4(8700m) 5(10500m)
Di, 22.10. 0:40 3(6900m) 7(8700m) 8(10500m)
Di, 22.10. 0:30 2(3000m) 8(8700m) 8(9000m)
Di, 22.10. 0:00 4(3000m) 4(8100m) 8(9000m)
Mo, 21.10. 23:30 5(3000m) 4(6900m) 8(9000m)
Mo, 21.10. 23:00 7(2700m) 8(5100m) 8(8700m)
Mo, 21.10. 22:30 8(2700m)
Ortszeit Luftdruck NN (hPa) Tendenz (hPa in 3 Std.)
Mo, 21.10. 20:00 1020 + 1,2
Mo, 21.10. 14:00 1018 + 1,2
Mo, 21.10. 8:00 1015 + 2,2
Mo, 21.10. 2:00 1012 + 0,2
So, 20.10. 20:00 1012 + 0,6
So, 20.10. 14:00 1011 + 0,4
So, 20.10. 8:00 1010 + 0,9
So, 20.10. 2:00 1010 + 0,2
Ortszeit Luftdruck NN (hPa) Tendenz (hPa in 3 Std.)
Di, 22.10. 1:30 1022 + 1,0
Di, 22.10. 1:20 1022 keine Meldung
Di, 22.10. 1:10 1022 keine Meldung
Di, 22.10. 1:00 1022 + 0,6
Di, 22.10. 0:50 1022 keine Meldung
Di, 22.10. 0:40 1022 keine Meldung
Di, 22.10. 0:30 1021 + 0,8
Di, 22.10. 0:00 1021 + 0,6
Mo, 21.10. 23:30 1021 + 0,5
Mo, 21.10. 23:00 1021 + 0,7
Mo, 21.10. 22:30 1021 + 1,0
Ortszeit Schneehöhe (cm)
Mo, 21.10. 20:00 0
Mo, 21.10. 14:00 0
Mo, 21.10. 8:00 0
Mo, 21.10. 2:00 0
So, 20.10. 20:00 0
So, 20.10. 14:00 0
So, 20.10. 8:00 0
So, 20.10. 2:00 0
Ortszeit Schneehöhe (cm)
Di, 22.10. 1:30 0
Di, 22.10. 1:20 0
Di, 22.10. 1:10 0
Di, 22.10. 1:00 0
Di, 22.10. 0:50 0
Di, 22.10. 0:40 0
Di, 22.10. 0:30 0
Di, 22.10. 0:00 0
Mo, 21.10. 23:30 0
Mo, 21.10. 23:00 0
Mo, 21.10. 22:30 0
Link zu dieser Seite / Seite empfehlen

Das Wetter in ...